createdAt,value
2019-02-21T00:00:24.387Z,16.63
2019-02-21T00:02:50.806Z,17.13
2019-02-21T00:05:19.093Z,18.17
2019-02-21T00:07:47.349Z,15.17
2019-02-21T00:10:15.625Z,14.37
2019-02-21T00:12:44.161Z,15.60
2019-02-21T00:15:12.747Z,22.23
2019-02-21T00:17:41.001Z,15.67
2019-02-21T00:20:09.272Z,16.90
2019-02-21T00:22:37.589Z,16.10
2019-02-21T00:25:06.377Z,22.20
2019-02-21T00:27:34.700Z,23.00
2019-02-21T00:30:03.352Z,20.87
2019-02-21T00:32:31.585Z,22.60
2019-02-21T00:34:59.850Z,17.17
2019-02-21T00:37:28.130Z,21.83
2019-02-21T00:39:56.747Z,17.50
2019-02-21T00:42:25.331Z,17.77
2019-02-21T00:44:53.945Z,16.23
2019-02-21T00:47:22.192Z,18.17
2019-02-21T00:49:50.478Z,16.47
2019-02-21T00:52:19.137Z,16.90
2019-02-21T00:54:47.722Z,18.30
2019-02-21T00:57:15.974Z,19.40
2019-02-21T00:59:44.242Z,22.50
2019-02-21T01:02:12.489Z,20.10
2019-02-21T01:04:40.753Z,18.70
2019-02-21T01:07:09.033Z,16.13
2019-02-21T01:09:37.550Z,18.90
2019-02-21T01:12:05.793Z,18.87
2019-02-21T01:14:34.075Z,17.30
2019-02-21T01:17:02.332Z,19.23
2019-02-21T01:19:30.886Z,18.30
2019-02-21T01:21:59.146Z,17.80
2019-02-21T01:24:27.984Z,18.43
2019-02-21T01:26:56.381Z,17.77
2019-02-21T01:29:24.667Z,16.27
2019-02-21T01:31:52.917Z,19.50
2019-02-21T01:34:21.187Z,18.90
2019-02-21T01:36:49.440Z,20.83
2019-02-21T01:39:17.705Z,17.33
2019-02-21T01:41:46.622Z,22.13
2019-02-21T01:44:14.894Z,17.70
2019-02-21T01:46:43.479Z,18.80
2019-02-21T01:49:12.168Z,15.10
2019-02-21T01:51:40.845Z,17.53
2019-02-21T01:54:09.433Z,22.03
2019-02-21T01:56:38.013Z,15.47
2019-02-21T01:59:06.302Z,17.57
2019-02-21T02:01:34.875Z,15.93
2019-02-21T02:04:03.152Z,18.40
2019-02-21T02:06:31.413Z,17.97
2019-02-21T02:08:59.644Z,16.77
2019-02-21T02:11:27.921Z,15.63
2019-02-21T02:13:56.252Z,21.13
2019-02-21T02:16:24.558Z,15.13
2019-02-21T02:18:52.810Z,17.87
2019-02-21T02:21:21.388Z,17.63
2019-02-21T02:23:49.654Z,19.70
2019-02-21T02:26:17.944Z,16.57
2019-02-21T02:28:46.516Z,18.33
2019-02-21T02:31:22.922Z,16.23
2019-02-21T02:33:44.776Z,18.10
2019-02-21T02:36:13.084Z,17.37
2019-02-21T02:38:41.384Z,14.40
2019-02-21T02:41:09.668Z,16.03
2019-02-21T02:43:38.178Z,17.33
2019-02-21T02:46:06.442Z,16.90
2019-02-21T02:48:34.997Z,16.10
2019-02-21T02:51:03.316Z,14.87
2019-02-21T02:53:31.881Z,17.10
2019-02-21T02:56:00.212Z,15.60
2019-02-21T02:58:28.568Z,13.97
2019-02-21T03:00:56.919Z,15.10
2019-02-21T03:03:25.576Z,14.50
2019-02-21T03:05:53.916Z,17.20
2019-02-21T03:08:22.535Z,15.27
2019-02-21T03:10:50.932Z,16.37
2019-02-21T03:13:19.238Z,17.23
2019-02-21T03:15:47.497Z,15.70
2019-02-21T03:18:15.757Z,18.40
2019-02-21T03:20:44.024Z,16.90
2019-02-21T03:23:12.288Z,16.80
2019-02-21T03:25:40.926Z,18.90
2019-02-21T03:28:09.541Z,18.70
2019-02-21T03:30:37.919Z,18.27
2019-02-21T03:33:06.183Z,17.43
2019-02-21T03:35:34.529Z,16.07
2019-02-21T03:38:02.778Z,17.20
2019-02-21T03:40:31.066Z,15.17
2019-02-21T03:42:59.381Z,16.17
2019-02-21T03:45:27.653Z,15.40
2019-02-21T03:47:56.283Z,15.97
2019-02-21T03:50:24.875Z,18.53
2019-02-21T03:52:53.160Z,19.27
2019-02-21T03:55:21.700Z,22.63
2019-02-21T03:57:49.992Z,17.93
2019-02-21T04:00:18.321Z,18.67
2019-02-21T04:02:46.608Z,16.87
2019-02-21T04:05:14.868Z,16.67
2019-02-21T04:07:43.150Z,18.17
2019-02-21T04:10:11.486Z,14.73
2019-02-21T04:12:39.775Z,19.40
2019-02-21T04:15:11.060Z,18.43
2019-02-21T04:17:39.324Z,21.33
2019-02-21T04:20:08.519Z,17.90
2019-02-21T04:22:36.872Z,21.40
2019-02-21T04:25:06.264Z,18.23
2019-02-21T04:27:34.551Z,18.73
2019-02-21T04:30:03.039Z,16.17
2019-02-21T04:32:31.687Z,18.40
2019-02-21T04:34:59.952Z,19.03
2019-02-21T04:37:28.226Z,20.33
2019-02-21T04:39:56.857Z,20.87
2019-02-21T04:42:25.121Z,19.60
2019-02-21T04:44:53.372Z,22.40
2019-02-21T04:47:21.953Z,20.03
2019-02-21T04:49:50.244Z,20.03
2019-02-21T04:52:18.602Z,24.00
2019-02-21T04:54:46.876Z,19.07
2019-02-21T04:57:15.295Z,23.77
2019-02-21T04:59:43.541Z,21.93
2019-02-21T05:02:11.814Z,20.57
2019-02-21T05:04:40.403Z,18.97
2019-02-21T05:07:08.682Z,22.90
2019-02-21T05:09:37.197Z,20.10
2019-02-21T05:12:05.836Z,23.57
2019-02-21T05:14:34.107Z,20.90
2019-02-21T05:17:02.386Z,23.50
2019-02-21T05:19:30.740Z,25.40
2019-02-21T05:21:59.454Z,21.07
2019-02-21T05:24:27.720Z,23.40
2019-02-21T05:26:57.642Z,19.80
2019-02-21T05:29:26.275Z,22.70
2019-02-21T05:32:02.221Z,21.03
2019-02-21T05:34:34.898Z,21.77
2019-02-21T05:37:07.545Z,21.07
2019-02-21T05:39:40.355Z,23.80
2019-02-21T05:42:12.949Z,23.33
2019-02-21T05:44:42.850Z,22.93
2019-02-21T05:47:13.043Z,23.57
2019-02-21T05:49:59.096Z,21.20
2019-02-21T05:52:29.018Z,21.83
2019-02-21T05:54:59.184Z,20.87
2019-02-21T05:57:29.099Z,19.30
2019-02-21T06:00:15.317Z,26.57
2019-02-21T06:02:53.327Z,23.53
2019-02-21T06:05:22.214Z,23.97
2019-02-21T06:07:57.960Z,21.03
2019-02-21T06:10:39.884Z,22.77
2019-02-21T06:13:15.893Z,19.77
2019-02-21T06:15:52.191Z,21.80
2019-02-21T06:18:40.845Z,25.03
2019-02-21T06:21:10.716Z,22.73
2019-02-21T06:23:40.715Z,22.20
2019-02-21T06:26:16.466Z,21.87
2019-02-21T06:28:53.649Z,28.83
2019-02-21T06:31:24.035Z,24.60
2019-02-21T06:33:54.679Z,27.00
2019-02-21T06:36:26.087Z,24.47
2019-02-21T06:38:54.100Z,23.40
2019-02-21T06:41:22.427Z,25.13
2019-02-21T06:43:52.782Z,23.37
2019-02-21T06:46:21.038Z,26.70
2019-02-21T06:48:51.556Z,27.70
2019-02-21T06:51:19.497Z,21.47
2019-02-21T06:53:47.769Z,26.73
2019-02-21T06:56:16.028Z,23.17
2019-02-21T06:58:44.873Z,26.10
2019-02-21T07:01:13.109Z,23.07
2019-02-21T07:03:41.402Z,24.90
2019-02-21T07:06:11.211Z,26.63
2019-02-21T07:08:40.197Z,27.83
2019-02-21T07:11:08.633Z,28.13
2019-02-21T07:13:37.209Z,31.13
2019-02-21T07:16:06.518Z,28.30
2019-02-21T07:18:34.785Z,32.40
2019-02-21T07:21:03.028Z,30.10
2019-02-21T07:23:42.817Z,31.90
2019-02-21T07:26:02.362Z,29.07
2019-02-21T07:28:30.718Z,28.53
2019-02-21T07:30:59.076Z,31.60
2019-02-21T07:33:28.920Z,28.27
2019-02-21T07:36:00.219Z,26.30
2019-02-21T07:38:29.079Z,25.83
2019-02-21T07:40:57.802Z,32.27
2019-02-21T07:43:26.191Z,36.47
2019-02-21T07:45:54.441Z,33.97
2019-02-21T07:48:23.983Z,31.90
2019-02-21T07:50:52.503Z,34.10
2019-02-21T07:53:20.871Z,32.30
2019-02-21T07:55:50.110Z,31.83
2019-02-21T07:58:18.736Z,33.90
2019-02-21T08:00:47.013Z,32.43
2019-02-21T08:03:15.639Z,31.83
2019-02-21T08:05:43.886Z,31.70
2019-02-21T08:08:12.150Z,26.77
2019-02-21T08:10:40.555Z,33.60
2019-02-21T08:13:09.134Z,33.53
2019-02-21T08:15:37.409Z,29.60
2019-02-21T08:18:05.663Z,32.23
2019-02-21T08:20:40.375Z,31.73
2019-02-21T08:23:04.574Z,29.73
2019-02-21T08:25:33.181Z,29.07
2019-02-21T08:28:01.427Z,29.03
2019-02-21T08:30:32.854Z,31.03
2019-02-21T08:33:11.523Z,34.80
2019-02-21T08:35:39.802Z,34.37
2019-02-21T08:38:08.069Z,41.42
2019-02-21T08:40:36.409Z,40.10
2019-02-21T08:43:04.731Z,56.03
2019-02-21T08:45:33.050Z,44.07
2019-02-21T08:48:01.576Z,49.13
2019-02-21T08:50:30.258Z,47.50
2019-02-21T08:53:00.925Z,41.00
2019-02-21T08:55:28.883Z,36.40
2019-02-21T08:57:57.149Z,36.07
2019-02-21T09:00:25.425Z,36.43
2019-02-21T09:02:53.990Z,35.77
2019-02-21T09:05:22.286Z,40.15
2019-02-21T09:07:50.603Z,34.17
2019-02-21T09:10:19.356Z,35.40
2019-02-21T09:12:48.635Z,30.97
2019-02-21T09:15:17.258Z,39.23
2019-02-21T09:17:45.600Z,32.53
2019-02-21T09:20:13.895Z,29.50
2019-02-21T09:22:42.362Z,30.27
2019-02-21T09:25:15.237Z,32.20
2019-02-21T09:27:43.481Z,33.40
2019-02-21T09:30:14.210Z,34.80
2019-02-21T09:32:42.453Z,32.10
2019-02-21T09:35:11.052Z,30.13
2019-02-21T09:37:39.603Z,36.53
2019-02-21T09:40:10.885Z,30.03
2019-02-21T09:42:39.476Z,34.87
2019-02-21T09:45:10.813Z,32.50
2019-02-21T09:47:39.349Z,34.53
2019-02-21T09:50:09.049Z,35.07
2019-02-21T09:52:37.290Z,32.77
2019-02-21T09:55:14.672Z,33.30
2019-02-21T09:57:42.929Z,36.93
2019-02-21T10:00:17.352Z,33.47
2019-02-21T10:02:45.621Z,32.57
2019-02-21T10:05:13.905Z,32.83
2019-02-21T10:07:42.224Z,32.50
2019-02-21T10:10:13.214Z,36.17
2019-02-21T10:12:41.467Z,34.80
2019-02-21T10:15:16.496Z,37.57
2019-02-21T10:17:44.751Z,39.20
2019-02-21T10:20:15.974Z,34.67
2019-02-21T10:22:44.256Z,44.03
2019-02-21T10:25:15.705Z,36.40
2019-02-21T10:27:43.977Z,37.43
2019-02-21T10:30:14.834Z,37.33
2019-02-21T10:32:43.165Z,42.43
2019-02-21T10:35:11.404Z,34.77
2019-02-21T10:37:39.682Z,41.87
2019-02-21T10:40:13.453Z,37.03
2019-02-21T10:42:41.738Z,44.57
2019-02-21T10:45:15.057Z,36.40
2019-02-21T10:47:43.387Z,35.70
2019-02-21T10:50:16.049Z,33.47
2019-02-21T10:52:44.607Z,47.60
2019-02-21T10:55:12.858Z,42.27
2019-02-21T10:57:41.121Z,44.90
2019-02-21T11:00:12.628Z,42.37
2019-02-21T11:02:40.888Z,39.17
2019-02-21T11:05:09.692Z,41.13
2019-02-21T11:07:38.294Z,36.80
2019-02-21T11:10:12.309Z,35.37
2019-02-21T11:12:40.606Z,32.93
2019-02-21T11:15:17.225Z,33.43
2019-02-21T11:17:45.804Z,41.20
2019-02-21T11:20:16.434Z,43.27
2019-02-21T11:22:44.710Z,41.90
2019-02-21T11:25:12.966Z,34.03
2019-02-21T11:27:41.618Z,33.50
2019-02-21T11:30:18.337Z,36.37
2019-02-21T11:32:46.616Z,38.50
2019-02-21T11:35:14.864Z,40.57
2019-02-21T11:37:46.601Z,40.77
2019-02-21T11:40:16.963Z,35.87
2019-02-21T11:42:45.735Z,37.33
2019-02-21T11:45:18.077Z,36.10
2019-02-21T11:47:47.238Z,38.13
2019-02-21T11:50:20.320Z,35.37
2019-02-21T11:52:48.601Z,38.27
2019-02-21T11:55:21.945Z,40.57
2019-02-21T11:57:50.231Z,36.13
2019-02-21T12:00:24.009Z,41.63
2019-02-21T12:02:52.287Z,43.40
2019-02-21T12:05:30.464Z,37.30
2019-02-21T12:07:50.537Z,38.17
2019-02-21T12:10:19.112Z,38.53
2019-02-21T12:12:47.695Z,42.63
2019-02-21T12:15:16.778Z,38.97
2019-02-21T12:17:45.423Z,43.83
2019-02-21T12:20:18.562Z,47.63
2019-02-21T12:22:47.435Z,40.13
2019-02-21T12:25:18.315Z,41.10
2019-02-21T12:27:46.675Z,40.20
2019-02-21T12:30:17.318Z,39.63
2019-02-21T12:32:45.666Z,38.30
2019-02-21T12:35:13.928Z,44.10
2019-02-21T12:37:42.548Z,40.00
2019-02-21T12:40:14.012Z,42.80
2019-02-21T12:42:42.573Z,42.13
2019-02-21T12:45:18.529Z,39.77
2019-02-21T12:47:53.121Z,37.17
2019-02-21T12:50:16.820Z,35.87
2019-02-21T12:52:45.103Z,39.57
2019-02-21T12:55:14.027Z,39.10
2019-02-21T12:57:42.311Z,38.83
2019-02-21T13:00:16.159Z,37.90
2019-02-21T13:02:44.456Z,40.90
2019-02-21T13:05:13.028Z,38.90
2019-02-21T13:07:41.313Z,36.87
2019-02-21T13:10:12.274Z,35.93
2019-02-21T13:12:40.829Z,36.87
2019-02-21T13:15:13.772Z,40.40
2019-02-21T13:17:42.050Z,41.07
2019-02-21T13:20:12.051Z,38.17
2019-02-21T13:22:40.415Z,42.70
2019-02-21T13:25:11.126Z,36.20
2019-02-21T13:27:39.729Z,41.30
2019-02-21T13:30:13.812Z,40.07
2019-02-21T13:32:42.085Z,38.23
2019-02-21T13:35:12.631Z,41.80
2019-02-21T13:37:40.917Z,45.07
2019-02-21T13:40:14.597Z,40.07
2019-02-21T13:42:42.884Z,42.57
2019-02-21T13:45:17.371Z,38.87
2019-02-21T13:47:48.640Z,39.40
2019-02-21T13:50:18.566Z,41.00
2019-02-21T13:52:46.847Z,39.57
2019-02-21T13:55:15.110Z,38.03
2019-02-21T13:57:43.393Z,43.27
2019-02-21T14:00:14.441Z,39.47
2019-02-21T14:02:42.729Z,40.03
2019-02-21T14:05:10.991Z,41.90
2019-02-21T14:07:39.670Z,36.27
2019-02-21T14:10:10.657Z,41.63
2019-02-21T14:12:39.097Z,35.87
2019-02-21T14:15:10.620Z,36.87
2019-02-21T14:17:40.161Z,36.43
2019-02-21T14:20:09.592Z,33.80
2019-02-21T14:22:38.739Z,39.83
2019-02-21T14:25:09.184Z,34.40
2019-02-21T14:27:37.469Z,33.97
2019-02-21T14:30:11.765Z,37.57
2019-02-21T14:32:40.045Z,37.00
2019-02-21T14:35:10.634Z,35.97
2019-02-21T14:37:38.890Z,38.90
2019-02-21T14:40:10.275Z,33.40
2019-02-21T14:42:38.554Z,33.10
2019-02-21T14:45:12.289Z,36.63
2019-02-21T14:47:40.087Z,31.70
2019-02-21T14:50:10.893Z,32.23
2019-02-21T14:52:39.235Z,36.33
2019-02-21T14:55:09.949Z,31.13
2019-02-21T14:57:41.070Z,34.67
2019-02-21T15:00:22.642Z,31.07
2019-02-21T15:02:50.921Z,29.10
2019-02-21T15:05:19.945Z,34.20
2019-02-21T15:07:48.465Z,32.33
2019-02-21T15:10:17.060Z,36.40
2019-02-21T15:12:45.659Z,32.63
2019-02-21T15:15:21.851Z,31.93
2019-02-21T15:17:49.405Z,34.83
2019-02-21T15:20:17.882Z,37.83
2019-02-21T15:22:46.158Z,34.47
2019-02-21T15:25:14.538Z,35.77
2019-02-21T15:27:42.800Z,28.67
2019-02-21T15:30:26.322Z,33.57
2019-02-21T15:32:54.604Z,31.10
2019-02-21T15:35:22.948Z,29.93
2019-02-21T15:37:51.229Z,37.50
2019-02-21T15:40:19.595Z,30.83
2019-02-21T15:42:47.845Z,33.93
2019-02-21T15:45:23.875Z,30.57
2019-02-21T15:47:52.213Z,31.20
2019-02-21T15:50:20.610Z,31.20
2019-02-21T15:52:49.124Z,31.27
2019-02-21T15:55:21.389Z,30.47
2019-02-21T15:57:49.708Z,30.37
2019-02-21T16:00:20.772Z,32.13
2019-02-21T16:02:49.024Z,33.43
2019-02-21T16:05:17.310Z,31.80
2019-02-21T16:07:45.946Z,33.70
2019-02-21T16:10:19.811Z,29.00
2019-02-21T16:12:48.293Z,31.80
2019-02-21T16:15:17.078Z,33.07
2019-02-21T16:17:45.668Z,29.83
2019-02-21T16:20:16.013Z,29.60
2019-02-21T16:22:45.040Z,26.03
2019-02-21T16:25:19.009Z,32.00
2019-02-21T16:27:47.356Z,26.10
2019-02-21T16:30:15.701Z,24.50
2019-02-21T16:32:44.082Z,24.70
2019-02-21T16:35:14.269Z,23.30
2019-02-21T16:37:42.608Z,24.37
2019-02-21T16:40:16.969Z,28.27
2019-02-21T16:42:45.551Z,25.33
2019-02-21T16:45:16.045Z,22.97
2019-02-21T16:47:44.439Z,23.23
2019-02-21T16:50:14.566Z,27.43
2019-02-21T16:52:43.250Z,28.57
2019-02-21T16:55:22.212Z,24.93
2019-02-21T16:57:50.755Z,25.77
2019-02-21T17:00:20.266Z,23.47
2019-02-21T17:02:48.851Z,31.57
2019-02-21T17:05:17.155Z,26.73
2019-02-21T17:07:45.570Z,27.77
2019-02-21T17:10:15.958Z,25.53
2019-02-21T17:12:44.230Z,30.57
2019-02-21T17:15:14.644Z,28.43
2019-02-21T17:17:43.355Z,28.47
2019-02-21T17:20:14.528Z,24.67
2019-02-21T17:22:42.785Z,26.17
2019-02-21T17:25:13.253Z,24.83
2019-02-21T17:27:41.622Z,23.90
2019-02-21T17:30:15.551Z,28.47
2019-02-21T17:32:43.821Z,27.10
2019-02-21T17:35:12.527Z,25.53
2019-02-21T17:37:40.786Z,27.60
2019-02-21T17:40:17.853Z,27.70
2019-02-21T17:42:46.651Z,26.80
2019-02-21T17:45:14.961Z,23.93
2019-02-21T17:47:43.213Z,23.33
2019-02-21T17:50:14.452Z,26.17
2019-02-21T17:52:42.723Z,27.43
2019-02-21T17:55:11.737Z,25.53
2019-02-21T17:57:39.992Z,26.20
2019-02-21T18:00:17.048Z,27.17
2019-02-21T18:02:44.770Z,30.37
2019-02-21T18:05:13.130Z,24.47
2019-02-21T18:07:41.387Z,26.43
2019-02-21T18:10:16.770Z,28.80
2019-02-21T18:12:45.034Z,25.57
2019-02-21T18:15:17.233Z,31.47
2019-02-21T18:17:45.491Z,29.63
2019-02-21T18:20:15.301Z,30.53
2019-02-21T18:22:43.626Z,25.60
2019-02-21T18:25:17.987Z,24.70
2019-02-21T18:27:46.247Z,26.20
2019-02-21T18:30:16.962Z,23.40
2019-02-21T18:32:45.558Z,29.53
2019-02-21T18:35:14.267Z,24.93
2019-02-21T18:37:47.360Z,26.60
2019-02-21T18:40:21.569Z,31.50
2019-02-21T18:42:49.865Z,27.77
2019-02-21T18:45:18.219Z,23.63
2019-02-21T18:47:46.823Z,27.80
2019-02-21T18:50:15.333Z,27.27
2019-02-21T18:52:43.609Z,33.00
2019-02-21T18:55:12.253Z,30.47
2019-02-21T18:57:40.509Z,29.77
2019-02-21T19:00:25.071Z,26.50
2019-02-21T19:02:53.330Z,28.97
2019-02-21T19:05:22.242Z,28.50
2019-02-21T19:07:58.494Z,30.37
2019-02-21T19:10:21.953Z,32.33
2019-02-21T19:12:50.229Z,32.03
2019-02-21T19:15:19.498Z,32.03
2019-02-21T19:17:48.138Z,30.73
2019-02-21T19:20:18.736Z,38.97
2019-02-21T19:22:47.329Z,32.83
2019-02-21T19:25:15.626Z,31.63
2019-02-21T19:27:47.088Z,32.80
2019-02-21T19:30:21.428Z,33.97
2019-02-21T19:32:50.682Z,41.10
2019-02-21T19:35:18.983Z,36.47
2019-02-21T19:37:47.229Z,37.83
2019-02-21T19:40:15.499Z,46.63
2019-02-21T19:42:43.822Z,39.93
2019-02-21T19:45:12.094Z,35.83
2019-02-21T19:47:40.404Z,34.53
2019-02-21T19:50:09.294Z,31.30
2019-02-21T19:52:37.680Z,36.97
2019-02-21T19:55:10.004Z,35.73
2019-02-21T19:57:38.370Z,38.60
2019-02-21T20:00:16.281Z,33.83
2019-02-21T20:02:44.802Z,33.23
2019-02-21T20:05:13.163Z,35.13
2019-02-21T20:07:41.537Z,28.77
2019-02-21T20:10:09.957Z,32.17
2019-02-21T20:12:38.757Z,31.80
2019-02-21T20:15:09.397Z,33.50
2019-02-21T20:17:37.712Z,37.83
2019-02-21T20:20:12.052Z,47.63
2019-02-21T20:22:40.414Z,49.97
2019-02-21T20:25:08.716Z,38.20
2019-02-21T20:27:37.141Z,36.03
2019-02-21T20:30:09.095Z,44.23
2019-02-21T20:32:37.436Z,41.07
2019-02-21T20:35:05.980Z,38.23
2019-02-21T20:37:34.309Z,37.20
2019-02-21T20:40:02.595Z,39.17
2019-02-21T20:42:31.951Z,32.90
2019-02-21T20:45:00.397Z,34.07
2019-02-21T20:47:29.049Z,33.07
2019-02-21T20:49:57.470Z,32.17
2019-02-21T20:52:25.819Z,30.90
2019-02-21T20:54:54.127Z,33.43
2019-02-21T20:57:22.445Z,35.27
2019-02-21T20:59:51.087Z,32.17
2019-02-21T21:02:19.607Z,35.43
2019-02-21T21:04:48.084Z,29.83
2019-02-21T21:07:24.806Z,32.63
2019-02-21T21:09:47.072Z,35.17
2019-02-21T21:12:15.422Z,38.23
2019-02-21T21:14:43.826Z,36.70
2019-02-21T21:17:12.468Z,33.63
2019-02-21T21:19:40.789Z,33.30
2019-02-21T21:22:09.452Z,33.00
2019-02-21T21:24:38.193Z,31.27
2019-02-21T21:27:06.496Z,39.17
2019-02-21T21:29:34.857Z,32.67
2019-02-21T21:32:03.412Z,30.40
2019-02-21T21:34:31.701Z,32.20
2019-02-21T21:37:00.102Z,30.67
2019-02-21T21:39:28.487Z,29.90
2019-02-21T21:41:57.162Z,33.90
2019-02-21T21:44:25.457Z,32.10
2019-02-21T21:46:54.163Z,29.93
2019-02-21T21:49:22.425Z,34.43
2019-02-21T21:51:51.200Z,35.43
2019-02-21T21:54:19.776Z,32.70
2019-02-21T21:56:48.386Z,29.70
2019-02-21T21:59:17.057Z,33.53
2019-02-21T22:01:47.552Z,36.03
2019-02-21T22:04:15.599Z,32.43
2019-02-21T22:06:43.876Z,33.33
2019-02-21T22:09:12.156Z,36.27
2019-02-21T22:11:40.797Z,30.97
2019-02-21T22:14:09.041Z,37.07
2019-02-21T22:16:37.651Z,38.80
2019-02-21T22:19:06.047Z,40.90
2019-02-21T22:21:34.516Z,39.37
2019-02-21T22:24:03.191Z,38.23
2019-02-21T22:26:32.505Z,36.23
2019-02-21T22:29:00.873Z,36.50
2019-02-21T22:31:29.291Z,41.60
2019-02-21T22:33:57.549Z,36.43
2019-02-21T22:36:26.149Z,36.07
2019-02-21T22:38:54.408Z,34.47
2019-02-21T22:41:22.678Z,32.50
2019-02-21T22:43:51.241Z,34.00
2019-02-21T22:46:19.823Z,36.80
2019-02-21T22:48:48.066Z,35.07
2019-02-21T22:51:16.334Z,33.97
2019-02-21T22:53:45.737Z,42.57
2019-02-21T22:56:14.155Z,35.10
2019-02-21T22:58:45.337Z,37.13
2019-02-21T23:01:19.479Z,32.80
2019-02-21T23:03:51.109Z,32.63
2019-02-21T23:06:56.063Z,36.77
2019-02-21T23:09:27.905Z,31.40
2019-02-21T23:11:55.623Z,31.60
2019-02-21T23:14:23.946Z,34.80
2019-02-21T23:16:52.591Z,33.90
2019-02-21T23:19:21.097Z,33.50
2019-02-21T23:21:49.761Z,36.73
2019-02-21T23:24:18.352Z,34.33
2019-02-21T23:26:46.633Z,33.73
2019-02-21T23:29:14.897Z,35.73
2019-02-21T23:31:43.322Z,38.27
2019-02-21T23:34:13.234Z,37.13
2019-02-21T23:36:41.529Z,32.20
2019-02-21T23:39:09.803Z,38.20
2019-02-21T23:41:38.083Z,36.03
2019-02-21T23:44:06.335Z,37.73
2019-02-21T23:46:35.185Z,35.13
2019-02-21T23:49:03.506Z,34.93
2019-02-21T23:51:34.622Z,36.80
2019-02-21T23:54:03.463Z,34.13
2019-02-21T23:56:31.903Z,32.77
2019-02-21T23:59:00.162Z,37.20
